»·PEaware :: N9401L KSBA-KLAX

N9401L :: KSBA-KLAX

FLIGHT INFORMATION

Flight Status: Arrived
Operator: Privately registered:
United States
More flights under this callsign
Pilot: Juan D. (11620)
Aircraft: PIPER PA-28R-201 ARROW
(P28R)
More flights by this aircraft type
Origin: KSBA Santa Barbara Mun
United States
Destination: KLAX Los Angeles Intl
United States
More flights between these airports :: More routes between these airports
Route: KWANG VTU V299 SADDE V107 SMO
File this flight plan on PilotEdge
Remarks: TEC route SBAP10
Altitude:
(Current/Filed)
5,000ft
Speed:
(Current/Filed)
130kts
Departed: 07-Oct-18 09:03 AM
Arrived: 07-Oct-18 10:02 AM
Distance/Time
Traveled:
78nm/0:59
Distance/Time
To Go:
Arrived

Flight Plot

Page will automatically refresh every two minutes.


Map Options




Map Legend


Flown Route
Filed Route
Departure Airport
Arrival Airport
Navaid (VOR, NDB)
Fix

Horizontal Profiles

Position Reports

Time Latitude Longitude Heading Altitude Ground
Speed
07-Oct-18 08:50 34.432568 -119.835091 71 16ft 0kts
07-Oct-18 08:51 34.432568 -119.835091 71 16ft 0kts
07-Oct-18 08:52 34.432568 -119.835091 71 16ft 0kts
07-Oct-18 08:53 34.432568 -119.835091 71 16ft 0kts
07-Oct-18 08:54 34.432568 -119.835091 71 16ft 0kts
07-Oct-18 08:55 34.432568 -119.835091 71 16ft 0kts
07-Oct-18 08:56 34.432568 -119.835091 71 16ft 0kts
07-Oct-18 08:57 34.432568 -119.835091 71 16ft 0kts
07-Oct-18 08:58 34.432568 -119.835091 71 16ft 0kts
07-Oct-18 08:59 34.432568 -119.835091 71 16ft 0kts
07-Oct-18 09:00 34.431262 -119.837929 250 16ft 21kts
07-Oct-18 09:01 34.430739 -119.839654 248 16ft 0kts
07-Oct-18 09:02 34.430739 -119.839654 248 16ft 0kts
07-Oct-18 09:03 34.430739 -119.839654 248 16ft 0kts
07-Oct-18 09:04 34.429966 -119.840121 164 16ft 20kts
07-Oct-18 09:05 34.409463 -119.833548 163 747ft 97kts
07-Oct-18 09:06 34.383623 -119.825093 163 1997ft 98kts
07-Oct-18 09:07 34.357030 -119.816413 163 2872ft 101kts
07-Oct-18 09:08 34.325360 -119.806082 164 3011ft 133kts
07-Oct-18 09:09 34.291004 -119.794762 163 3466ft 110kts
07-Oct-18 09:10 34.261412 -119.785181 163 4152ft 109kts
07-Oct-18 09:11 34.231720 -119.775653 163 4840ft 112kts
07-Oct-18 09:12 34.197497 -119.764537 163 5027ft 145kts
07-Oct-18 09:13 34.161755 -119.744839 102 5021ft 141kts
07-Oct-18 09:14 34.157171 -119.698639 87 5027ft 137kts
07-Oct-18 09:15 34.154622 -119.652862 87 5028ft 135kts
07-Oct-18 09:16 34.152064 -119.607771 87 5030ft 134kts
07-Oct-18 09:17 34.149579 -119.563165 87 5031ft 132kts
07-Oct-18 09:18 34.147217 -119.519129 86 5033ft 130kts
07-Oct-18 09:19 34.144105 -119.475267 89 4978ft 131kts
07-Oct-18 09:20 34.140943 -119.431628 87 4978ft 130kts
07-Oct-18 09:21 34.138158 -119.388212 87 4978ft 129kts
07-Oct-18 09:22 34.135690 -119.344833 87 4979ft 129kts
07-Oct-18 09:23 34.133142 -119.301181 88 4979ft 130kts
07-Oct-18 09:24 34.130392 -119.257574 88 4980ft 130kts
07-Oct-18 09:25 34.127575 -119.213711 88 4981ft 132kts
07-Oct-18 09:26 34.124681 -119.169059 88 4982ft 134kts
07-Oct-18 09:27 34.121738 -119.123993 88 4983ft 136kts
07-Oct-18 09:28 34.118728 -119.078181 88 4985ft 137kts
07-Oct-18 09:29 34.114211 -119.039823 101 4985ft 141kts
07-Oct-18 09:30 34.100336 -118.986890 103 4987ft 142kts
07-Oct-18 09:31 34.086915 -118.942140 105 4987ft 141kts
07-Oct-18 09:32 34.074527 -118.897108 104 4988ft 141kts
07-Oct-18 09:33 34.064548 -118.859711 105 4988ft 140kts
07-Oct-18 09:34 34.052600 -118.814954 105 4989ft 140kts
07-Oct-18 09:35 34.039036 -118.762872 96 4989ft 139kts
07-Oct-18 09:36 34.035440 -118.724302 94 4992ft 138kts
07-Oct-18 09:37 34.030487 -118.670297 94 4993ft 139kts
07-Oct-18 09:38 34.026722 -118.631770 94 4994ft 139kts
07-Oct-18 09:39 34.022402 -118.585489 94 4996ft 139kts
07-Oct-18 09:40 34.018112 -118.539433 93 4997ft 138kts
07-Oct-18 09:41 34.013911 -118.494472 93 4997ft 138kts
07-Oct-18 09:42 34.007928 -118.454743 109 4997ft 138kts
07-Oct-18 09:43 33.996144 -118.419863 108 4999ft 137kts
07-Oct-18 09:44 33.986122 -118.389417 108 5000ft 136kts
07-Oct-18 09:45 33.976696 -118.360779 107 5001ft 135kts
07-Oct-18 09:46 33.968007 -118.334293 108 5003ft 134kts
07-Oct-18 09:47 33.959037 -118.306773 108 5004ft 133kts
07-Oct-18 09:48 33.950480 -118.280402 108 5005ft 134kts
07-Oct-18 09:49 33.941325 -118.251991 107 5005ft 135kts
07-Oct-18 09:50 33.932045 -118.222870 107 5006ft 137kts
07-Oct-18 09:51 33.922259 -118.191619 107 5006ft 141kts
07-Oct-18 09:52 33.924555 -118.155906 78 5006ft 140kts
07-Oct-18 09:53 33.929308 -118.119668 79 5006ft 141kts
07-Oct-18 09:54 33.947318 -118.095486 343 4795ft 145kts
07-Oct-18 09:55 33.961220 -118.132157 277 3653ft 161kts
07-Oct-18 09:56 33.958414 -118.170584 263 3146ft 156kts
07-Oct-18 09:57 33.955250 -118.207392 265 2736ft 156kts
07-Oct-18 09:58 33.952359 -118.242846 265 2535ft 154kts
07-Oct-18 09:59 33.949211 -118.277432 264 2048ft 162kts
07-Oct-18 10:00 33.944987 -118.315574 261 1263ft 164kts
07-Oct-18 10:01 33.940591 -118.345980 264 652ft 94kts
07-Oct-18 10:02 33.938824 -118.367650 264 435ft 72kts
07-Oct-18 10:03 33.936918 -118.387221 263 129ft 55kts
07-Oct-18 10:04 33.935475 -118.390903 170 128ft 0kts
07-Oct-18 10:05 33.934506 -118.392334 175 128ft 15kts
07-Oct-18 10:06 33.933894 -118.390430 184 128ft 0kts

Navigation Log

Ident Type
Flight plan parsing failed, navigation log unavailable